Time;durP1;ratioP1;P1;durP2;ratioP2;P2;SDS_P1;SDS_P2;PMS_P1;PMS_P2;Temp;Humidity;BMP_temperature;BMP_pressure;BME280_temperature;BME280_humidity;BME280_pressure;Samples;Min_cycle;Max_cycle;Signal;HPM_P1;HPM_P2
2023/04/14 00:00:35;;;;;;;6.38;3.72;;;6.10;99.90;;;;;;5064452;28;20477;-86
2023/04/14 00:03:05;;;;;;;6.03;3.30;;;6.00;99.90;;;;;;5064551;28;20731;-86
2023/04/14 00:05:31;;;;;;;10.05;3.65;;;6.00;99.90;;;;;;5063331;28;20044;-85
2023/04/14 00:07:57;;;;;;;5.80;3.55;;;6.00;99.90;;;;;;5048835;28;20036;-85
2023/04/14 00:10:23;;;;;;;5.43;4.22;;;5.90;99.90;;;;;;5062582;28;20482;-85
2023/04/14 00:12:49;;;;;;;7.28;4.53;;;5.90;99.90;;;;;;5062584;28;20141;-86
2023/04/14 00:15:15;;;;;;;10.80;3.83;;;5.90;99.90;;;;;;5062106;28;20029;-85
2023/04/14 00:17:41;;;;;;;5.65;4.00;;;5.90;99.90;;;;;;5062595;28;20029;-85
2023/04/14 00:20:07;;;;;;;10.15;4.90;;;5.90;99.90;;;;;;5053116;28;20029;-85
2023/04/14 00:22:33;;;;;;;8.65;5.57;;;6.00;99.90;;;;;;5064953;28;20482;-85
2023/04/14 00:24:58;;;;;;;13.48;3.85;;;6.00;99.90;;;;;;5062710;28;20241;-86
2023/04/14 00:27:24;;;;;;;10.10;5.05;;;6.00;99.90;;;;;;5064264;28;20075;-86
2023/04/14 00:29:50;;;;;;;13.15;4.70;;;6.00;99.90;;;;;;5058350;28;20025;-86
2023/04/14 00:32:18;;;;;;;10.02;4.75;;;6.00;99.90;;;;;;5058591;28;20032;-86
2023/04/14 00:34:44;;;;;;;9.77;4.82;;;6.00;99.90;;;;;;5058539;28;20374;-86
2023/04/14 00:37:09;;;;;;;9.20;4.75;;;6.00;99.90;;;;;;5057907;28;20086;-86
2023/04/14 00:39:35;;;;;;;13.25;5.57;;;6.00;99.90;;;;;;5064881;28;20035;-86
2023/04/14 00:42:02;;;;;;;7.25;5.03;;;6.00;99.90;;;;;;5065899;28;20052;-86
2023/04/14 00:44:27;;;;;;;13.80;5.45;;;6.00;99.90;;;;;;5060464;28;20040;-86
2023/04/14 00:46:53;;;;;;;11.50;5.88;;;6.00;99.90;;;;;;5062681;28;20029;-85
2023/04/14 00:49:19;;;;;;;9.20;5.38;;;6.10;99.90;;;;;;5056481;28;20093;-86
2023/04/14 00:51:46;;;;;;;9.93;5.00;;;6.10;99.90;;;;;;5051168;28;20212;-85
2023/04/14 00:54:14;;;;;;;10.18;4.57;;;6.10;99.90;;;;;;5048817;28;20493;-86
2023/04/14 00:56:41;;;;;;;9.95;4.75;;;6.10;99.90;;;;;;5064676;28;20051;-86
2023/04/14 00:59:08;;;;;;;10.25;4.45;;;6.20;99.90;;;;;;5065657;28;20031;-86
2023/04/14 01:01:37;;;;;;;8.68;4.30;;;6.20;99.90;;;;;;5065027;28;20078;-86
2023/04/14 01:04:04;;;;;;;5.05;3.38;;;6.20;99.90;;;;;;5057399;28;20029;-86
2023/04/14 01:06:30;;;;;;;8.95;4.07;;;6.20;99.90;;;;;;5057954;28;20028;-87
2023/04/14 01:08:57;;;;;;;4.55;3.13;;;6.20;99.90;;;;;;5045957;28;20040;-86
2023/04/14 01:11:50;;;;;;;11.23;3.97;;;6.20;99.90;;;;;;5063444;28;20477;-86
2023/04/14 01:14:38;;;;;;;17.27;4.38;;;6.20;99.90;;;;;;5063669;28;20448;-86
2023/04/14 01:17:12;;;;;;;7.50;3.42;;;6.30;99.90;;;;;;5063585;28;20020;-86
2023/04/14 01:20:06;;;;;;;10.00;4.05;;;6.30;99.90;;;;;;5060694;28;20056;-86
2023/04/14 01:22:36;;;;;;;7.20;3.80;;;6.30;99.90;;;;;;5050999;28;20029;-86
2023/04/14 01:25:30;;;;;;;4.50;3.50;;;6.40;99.90;;;;;;5059885;28;20028;-85
2023/04/14 01:28:22;;;;;;;7.10;4.10;;;6.40;99.90;;;;;;5060297;28;20048;-85
2023/04/14 01:31:17;;;;;;;13.70;4.32;;;6.40;99.90;;;;;;5054627;28;20021;-85
2023/04/14 01:33:45;;;;;;;11.38;3.92;;;6.50;99.90;;;;;;5059701;28;20040;-85
2023/04/14 01:36:21;;;;;;;7.43;3.72;;;6.50;99.90;;;;;;5062250;28;20029;-85
2023/04/14 01:38:49;;;;;;;14.88;4.38;;;6.50;99.90;;;;;;5054387;28;20434;-85
2023/04/14 01:41:16;;;;;;;4.88;3.30;;;6.50;99.90;;;;;;5054413;28;20053;-85
2023/04/14 01:43:47;;;;;;;5.32;3.70;;;6.50;99.90;;;;;;5063006;28;20041;-85
2023/04/14 01:46:15;;;;;;;5.57;3.25;;;6.40;99.90;;;;;;5062177;28;20097;-85
2023/04/14 01:48:42;;;;;;;9.85;3.97;;;6.40;99.90;;;;;;5061180;28;20086;-85
2023/04/14 01:51:09;;;;;;;6.93;4.57;;;6.40;99.90;;;;;;5061216;28;20108;-85
2023/04/14 01:53:38;;;;;;;9.18;3.45;;;6.30;99.90;;;;;;5060904;28;20017;-85
2023/04/14 01:56:07;;;;;;;3.58;2.80;;;6.40;99.90;;;;;;5060491;28;20061;-85
2023/04/14 01:58:33;;;;;;;4.82;2.72;;;6.40;99.90;;;;;;5059508;28;20037;-85
2023/04/14 02:00:59;;;;;;;4.43;2.70;;;6.40;99.90;;;;;;5061083;28;20039;-85
2023/04/14 02:03:27;;;;;;;3.95;3.00;;;6.30;99.90;;;;;;5064145;28;20025;-85
2023/04/14 02:05:54;;;;;;;4.70;2.92;;;6.30;99.90;;;;;;5062104;28;20032;-85
2023/04/14 02:08:21;;;;;;;3.88;2.88;;;6.30;99.90;;;;;;5061971;28;20515;-85
2023/04/14 02:10:50;;;;;;;4.20;2.67;;;6.30;99.90;;;;;;5059524;28;20055;-85
2023/04/14 02:13:19;;;;;;;3.70;2.42;;;6.40;99.90;;;;;;5067775;28;20175;-85
2023/04/14 02:15:48;;;;;;;3.53;2.47;;;6.40;99.90;;;;;;5066148;28;20025;-85
2023/04/14 02:18:14;;;;;;;3.15;2.72;;;6.40;99.90;;;;;;5063225;28;20055;-85
2023/04/14 02:20:43;;;;;;;2.85;2.63;;;6.40;99.90;;;;;;5065841;28;20059;-85
2023/04/14 02:23:11;;;;;;;7.57;3.05;;;6.40;99.90;;;;;;5067030;28;20041;-85
2023/04/14 02:25:44;;;;;;;7.00;3.25;;;6.40;99.90;;;;;;5062571;28;20082;-84
2023/04/14 02:28:19;;;;;;;5.32;2.50;;;6.40;99.90;;;;;;5065177;28;20032;-84
2023/04/14 02:30:49;;;;;;;5.45;3.05;;;6.50;99.90;;;;;;5061768;28;20143;-85
2023/04/14 02:33:20;;;;;;;6.60;2.92;;;6.50;99.90;;;;;;5065414;28;20507;-84
2023/04/14 02:36:01;;;;;;;5.85;3.10;;;6.60;99.90;;;;;;5056063;28;20039;-84
2023/04/14 02:38:47;;;;;;;7.38;3.00;;;6.50;99.90;;;;;;5066372;28;20408;-84
2023/04/14 02:41:23;;;;;;;8.30;3.05;;;6.50;99.90;;;;;;5063078;28;20326;-84
2023/04/14 02:44:13;;;;;;;4.53;2.88;;;6.50;99.90;;;;;;5066657;28;20155;-84
2023/04/14 02:46:41;;;;;;;2.40;2.20;;;6.50;99.90;;;;;;5062676;28;20536;-84
2023/04/14 02:49:10;;;;;;;5.80;2.60;;;6.50;99.90;;;;;;5058747;28;20094;-85
2023/04/14 02:51:37;;;;;;;3.30;2.45;;;6.60;99.90;;;;;;5066565;28;20269;-84
2023/04/14 02:54:04;;;;;;;7.35;2.90;;;6.60;99.90;;;;;;5067608;28;20025;-84
2023/04/14 02:56:31;;;;;;;5.97;3.20;;;6.60;99.90;;;;;;5063333;28;20075;-85
2023/04/14 02:58:58;;;;;;;6.95;3.50;;;6.60;99.90;;;;;;5064865;28;20033;-85
2023/04/14 03:01:25;;;;;;;8.85;3.65;;;6.60;99.90;;;;;;5063821;28;20473;-85
2023/04/14 03:03:52;;;;;;;8.52;2.88;;;6.50;99.90;;;;;;5065751;28;20056;-84
2023/04/14 03:06:18;;;;;;;6.85;2.58;;;6.50;99.90;;;;;;5060940;28;20020;-84
2023/04/14 03:08:46;;;;;;;8.48;3.10;;;6.50;99.90;;;;;;5066893;28;20047;-84
2023/04/14 03:11:13;;;;;;;9.82;3.90;;;6.50;99.90;;;;;;5047119;28;20040;-84
2023/04/14 03:13:42;;;;;;;5.57;2.33;;;6.50;99.90;;;;;;5058637;28;20071;-84
2023/04/14 03:16:09;;;;;;;4.45;2.90;;;6.50;99.90;;;;;;5061443;28;20024;-84
2023/04/14 03:18:36;;;;;;;13.32;4.15;;;6.50;99.90;;;;;;5065351;28;20029;-85
2023/04/14 03:21:03;;;;;;;12.20;3.97;;;6.60;99.90;;;;;;5067133;28;20029;-85
2023/04/14 03:23:31;;;;;;;11.25;4.00;;;6.60;99.90;;;;;;5063438;28;20031;-84
2023/04/14 03:25:59;;;;;;;9.55;3.35;;;6.70;99.90;;;;;;5062800;28;20469;-84
2023/04/14 03:28:29;;;;;;;13.80;4.30;;;6.70;99.90;;;;;;5064194;28;20123;-84
2023/04/14 03:30:55;;;;;;;7.95;4.53;;;6.70;99.90;;;;;;5064440;28;20047;-84
2023/04/14 03:33:26;;;;;;;10.45;4.38;;;6.80;99.90;;;;;;5064609;28;20021;-84
2023/04/14 03:35:53;;;;;;;11.27;5.90;;;6.90;99.90;;;;;;5060434;28;20040;-85
2023/04/14 03:38:20;;;;;;;11.02;4.93;;;6.90;99.90;;;;;;5066497;28;20039;-84
2023/04/14 03:40:47;;;;;;;22.50;4.90;;;6.90;99.90;;;;;;5058047;28;20110;-84
2023/04/14 03:43:18;;;;;;;9.23;5.72;;;7.00;99.90;;;;;;5058509;28;20028;-84
2023/04/14 03:45:48;;;;;;;15.70;5.25;;;7.00;99.90;;;;;;5059933;28;20056;-84
2023/04/14 03:48:17;;;;;;;15.30;5.93;;;7.00;99.90;;;;;;5056718;28;20063;-87
2023/04/14 03:50:46;;;;;;;10.55;5.95;;;7.10;99.90;;;;;;5056413;28;20393;-84
2023/04/14 03:53:17;;;;;;;10.80;5.55;;;7.10;99.90;;;;;;5064045;28;20020;-84
2023/04/14 03:55:45;;;;;;;16.00;6.70;;;7.10;99.90;;;;;;5062740;28;20385;-84
2023/04/14 03:58:12;;;;;;;14.90;6.07;;;7.10;99.90;;;;;;5062556;28;20028;-84
2023/04/14 04:00:38;;;;;;;8.65;5.22;;;7.20;99.90;;;;;;5065560;28;20481;-84
2023/04/14 04:03:07;;;;;;;15.45;5.93;;;7.20;99.90;;;;;;5063413;28;20047;-84
2023/04/14 04:05:33;;;;;;;11.20;6.00;;;7.20;99.90;;;;;;5062041;28;20051;-85
2023/04/14 04:08:06;;;;;;;9.45;5.07;;;7.20;99.90;;;;;;5063552;28;20037;-84
2023/04/14 04:10:33;;;;;;;13.35;6.45;;;7.20;99.90;;;;;;5064544;28;20028;-84
2023/04/14 04:13:01;;;;;;;9.10;5.40;;;7.10;99.90;;;;;;5065859;28;20028;-84
2023/04/14 04:15:30;;;;;;;16.65;5.60;;;7.10;99.90;;;;;;5060353;28;20107;-84
2023/04/14 04:17:58;;;;;;;10.20;5.80;;;7.10;99.90;;;;;;5063382;28;20036;-84
2023/04/14 04:20:25;;;;;;;12.70;5.45;;;7.10;99.90;;;;;;5062837;28;20024;-84
2023/04/14 04:22:56;;;;;;;15.00;6.07;;;7.20;99.90;;;;;;5062315;28;20478;-84
2023/04/14 04:25:22;;;;;;;12.27;5.70;;;7.20;99.90;;;;;;5061690;28;20058;-84
2023/04/14 04:27:49;;;;;;;13.63;6.10;;;7.20;99.90;;;;;;5064073;28;20477;-84
2023/04/14 04:30:17;;;;;;;12.95;5.57;;;7.20;99.90;;;;;;5060784;28;20052;-84
2023/04/14 04:32:42;;;;;;;10.38;5.25;;;7.20;99.90;;;;;;5060412;28;20119;-84
2023/04/14 04:35:09;;;;;;;16.00;5.75;;;7.20;99.90;;;;;;5058647;28;20107;-85
2023/04/14 04:37:36;;;;;;;11.18;5.25;;;7.20;99.90;;;;;;5061611;28;20624;-84
2023/04/14 04:40:06;;;;;;;9.70;5.47;;;7.20;99.90;;;;;;5065007;28;20139;-84
2023/04/14 04:42:31;;;;;;;11.07;5.78;;;7.20;99.90;;;;;;5064754;28;20028;-84
2023/04/14 04:44:57;;;;;;;8.50;4.97;;;7.20;99.90;;;;;;5058750;28;20392;-85
2023/04/14 04:47:23;;;;;;;10.23;5.13;;;7.20;99.90;;;;;;5055196;28;20090;-84
2023/04/14 04:49:48;;;;;;;11.57;5.82;;;7.20;99.90;;;;;;5064175;28;20031;-85
2023/04/14 04:52:14;;;;;;;18.88;5.40;;;7.20;99.90;;;;;;5061458;28;20017;-84
2023/04/14 04:54:39;;;;;;;13.25;5.95;;;7.30;99.90;;;;;;5056509;28;20461;-85
2023/04/14 04:57:05;;;;;;;12.25;5.03;;;7.30;99.90;;;;;;5061398;28;20082;-84
2023/04/14 04:59:32;;;;;;;11.75;6.10;;;7.30;99.90;;;;;;5057673;28;20018;-84
2023/04/14 05:01:57;;;;;;;11.20;5.30;;;7.30;99.90;;;;;;5060093;28;20036;-84
2023/04/14 05:04:23;;;;;;;14.30;6.25;;;7.20;99.90;;;;;;5062684;28;20432;-84
2023/04/14 05:06:48;;;;;;;13.75;5.40;;;7.20;99.90;;;;;;5063161;28;20027;-84
2023/04/14 05:09:14;;;;;;;10.80;5.20;;;7.30;99.90;;;;;;5061619;28;20409;-84
2023/04/14 05:11:40;;;;;;;13.90;6.00;;;7.30;99.90;;;;;;5063120;28;20440;-84
2023/04/14 05:14:07;;;;;;;12.90;6.10;;;7.30;99.90;;;;;;5056643;28;20123;-84
2023/04/14 05:16:33;;;;;;;9.00;5.63;;;7.30;99.90;;;;;;5060575;28;20032;-85
2023/04/14 05:18:59;;;;;;;12.77;6.07;;;7.20;99.90;;;;;;5054472;28;20037;-85
2023/04/14 05:21:24;;;;;;;10.93;5.65;;;7.30;99.90;;;;;;5060041;28;20255;-85
2023/04/14 05:23:51;;;;;;;15.23;6.07;;;7.30;99.90;;;;;;5057021;28;20021;-85
2023/04/14 05:26:17;;;;;;;13.70;6.43;;;7.30;99.90;;;;;;5058308;28;20035;-85
2023/04/14 05:28:43;;;;;;;10.35;6.30;;;7.30;99.90;;;;;;5058282;28;20041;-85
2023/04/14 05:31:08;;;;;;;10.75;6.80;;;7.30;99.90;;;;;;5059680;28;20516;-85
2023/04/14 05:33:35;;;;;;;12.63;5.88;;;7.30;99.90;;;;;;5063717;28;20025;-85
2023/04/14 05:36:03;;;;;;;15.60;5.82;;;7.30;99.90;;;;;;5062636;28;20036;-86
2023/04/14 05:38:28;;;;;;;11.40;6.70;;;7.20;99.90;;;;;;5060271;28;20029;-84
2023/04/14 05:40:54;;;;;;;17.50;6.32;;;7.20;99.90;;;;;;5059989;28;20067;-85
2023/04/14 05:43:20;;;;;;;13.43;6.32;;;7.20;99.90;;;;;;5064777;28;20024;-84
2023/04/14 05:45:48;;;;;;;14.98;6.95;;;7.30;99.90;;;;;;5066230;28;20031;-84
2023/04/14 05:48:15;;;;;;;13.93;6.10;;;7.20;99.90;;;;;;5058497;28;20549;-85
2023/04/14 05:50:41;;;;;;;9.32;5.55;;;7.20;99.90;;;;;;5064075;28;20089;-86
2023/04/14 05:53:07;;;;;;;11.43;4.95;;;7.20;99.90;;;;;;5059430;28;20129;-85
2023/04/14 05:55:32;;;;;;;10.40;5.38;;;7.30;99.90;;;;;;5060766;28;20052;-84
2023/04/14 05:57:58;;;;;;;7.47;4.90;;;7.30;99.90;;;;;;5061449;28;20025;-85
2023/04/14 06:00:25;;;;;;;10.75;4.50;;;7.30;99.90;;;;;;5063233;28;20419;-85
2023/04/14 06:02:51;;;;;;;15.98;5.50;;;7.30;99.90;;;;;;5056312;28;20033;-85
2023/04/14 06:05:17;;;;;;;14.82;5.65;;;7.30;99.90;;;;;;5060734;28;20036;-82
2023/04/14 06:07:43;;;;;;;10.95;5.38;;;7.30;99.90;;;;;;5059061;28;20391;-85
2023/04/14 06:10:09;;;;;;;9.75;4.97;;;7.30;99.90;;;;;;5061401;28;20020;-85
2023/04/14 06:12:36;;;;;;;13.13;4.93;;;7.40;99.90;;;;;;5064400;28;20477;-85
2023/04/14 06:15:03;;;;;;;20.63;6.85;;;7.30;99.90;;;;;;5061741;28;20029;-85
2023/04/14 06:17:28;;;;;;;17.42;5.05;;;7.40;99.90;;;;;;5061750;28;20025;-85
2023/04/14 06:19:54;;;;;;;7.63;4.63;;;7.40;99.90;;;;;;5065016;28;20032;-84
2023/04/14 06:22:19;;;;;;;11.18;4.97;;;7.40;99.90;;;;;;5057607;28;20028;-86
2023/04/14 06:24:45;;;;;;;11.52;5.60;;;7.50;99.90;;;;;;5054808;28;20028;-85
2023/04/14 06:27:11;;;;;;;9.00;4.72;;;7.50;99.90;;;;;;5063051;28;20035;-84
2023/04/14 06:29:37;;;;;;;13.73;6.03;;;7.60;99.90;;;;;;5064691;28;20397;-84
2023/04/14 06:32:03;;;;;;;12.10;5.90;;;7.60;99.90;;;;;;5060482;28;20518;-85
2023/04/14 06:34:29;;;;;;;12.75;5.80;;;7.60;99.90;;;;;;5063060;28;20025;-85
2023/04/14 06:36:55;;;;;;;15.85;5.15;;;7.60;99.90;;;;;;5061622;28;20038;-84
2023/04/14 06:39:21;;;;;;;16.77;5.03;;;7.60;99.90;;;;;;5057334;28;20032;-85
2023/04/14 06:41:47;;;;;;;11.85;5.25;;;7.70;99.90;;;;;;5060967;28;20048;-85
2023/04/14 06:44:13;;;;;;;14.68;6.03;;;7.70;99.90;;;;;;5059855;28;20530;-85
2023/04/14 06:46:39;;;;;;;13.55;5.53;;;7.70;99.90;;;;;;5060427;28;20040;-85
2023/04/14 06:49:06;;;;;;;16.75;5.38;;;7.80;99.90;;;;;;5061270;28;20041;-85
2023/04/14 06:51:32;;;;;;;12.68;5.28;;;7.80;99.90;;;;;;5062798;28;20024;-85
2023/04/14 06:53:57;;;;;;;11.40;5.15;;;7.80;99.90;;;;;;5058485;28;20465;-84
2023/04/14 06:56:23;;;;;;;9.98;5.80;;;7.80;99.90;;;;;;5058331;28;20032;-85
2023/04/14 06:58:49;;;;;;;7.82;4.72;;;7.80;99.90;;;;;;5059180;28;20074;-85
2023/04/14 07:01:14;;;;;;;13.57;6.00;;;7.80;99.90;;;;;;5055655;28;20052;-84
2023/04/14 07:03:40;;;;;;;13.80;5.88;;;7.80;99.90;;;;;;5061545;28;20025;-84
2023/04/14 07:06:10;;;;;;;17.35;6.05;;;7.80;99.90;;;;;;5059429;28;20078;-84
2023/04/14 07:08:36;;;;;;;9.07;5.45;;;7.80;99.90;;;;;;5056133;28;20134;-84
2023/04/14 07:11:07;;;;;;;11.48;5.75;;;7.80;99.90;;;;;;5057891;28;20020;-85
2023/04/14 07:13:37;;;;;;;10.93;6.13;;;7.80;99.90;;;;;;5060041;28;20048;-85
2023/04/14 07:16:05;;;;;;;17.63;6.97;;;7.80;99.90;;;;;;5055219;28;20040;-84
2023/04/14 07:18:30;;;;;;;13.68;6.70;;;7.80;99.90;;;;;;5061981;28;20024;-84
2023/04/14 07:21:00;;;;;;;16.90;6.88;;;7.90;99.90;;;;;;5060135;28;20118;-85
2023/04/14 07:23:26;;;;;;;19.48;6.97;;;8.00;99.90;;;;;;5056449;28;20107;-84
2023/04/14 07:25:57;;;;;;;22.20;7.65;;;8.00;99.90;;;;;;5062750;28;20088;-85
2023/04/14 07:28:24;;;;;;;16.00;6.68;;;8.00;99.90;;;;;;5055975;28;20060;-85
2023/04/14 07:30:50;;;;;;;16.08;6.85;;;8.00;99.90;;;;;;5064202;28;20036;-84
2023/04/14 07:33:21;;;;;;;14.15;6.53;;;8.00;99.90;;;;;;5063099;28;20032;-84
2023/04/14 07:35:53;;;;;;;17.50;6.90;;;8.00;99.90;;;;;;5062605;28;20089;-85
2023/04/14 07:38:19;;;;;;;14.15;7.00;;;8.10;99.90;;;;;;5059170;28;20364;-85
2023/04/14 07:40:44;;;;;;;15.35;7.05;;;8.10;99.90;;;;;;5052820;28;20131;-85
2023/04/14 07:43:12;;;;;;;11.80;6.35;;;8.10;99.90;;;;;;5056082;28;20051;-85
2023/04/14 07:45:38;;;;;;;18.00;7.80;;;8.20;99.90;;;;;;5062495;28;20036;-85
2023/04/14 07:48:04;;;;;;;14.05;8.07;;;8.20;99.90;;;;;;5055556;28;20063;-85
2023/04/14 07:50:30;;;;;;;21.15;7.95;;;8.20;99.90;;;;;;5055216;28;20029;-85
2023/04/14 07:52:58;;;;;;;22.40;8.18;;;8.20;99.90;;;;;;5054862;28;20519;-86
2023/04/14 07:55:23;;;;;;;19.80;7.72;;;8.20;99.90;;;;;;5060434;28;20101;-86
2023/04/14 07:57:49;;;;;;;18.35;8.63;;;8.30;99.90;;;;;;5061083;28;20496;-85
2023/04/14 08:00:15;;;;;;;21.45;9.95;;;8.30;99.90;;;;;;5063021;28;20039;-85
2023/04/14 08:02:41;;;;;;;18.15;7.93;;;8.40;99.90;;;;;;5059404;28;21342;-85
2023/04/14 08:05:07;;;;;;;18.80;8.82;;;8.40;99.90;;;;;;5063182;28;20109;-85
2023/04/14 08:07:32;;;;;;;23.73;8.07;;;8.40;99.90;;;;;;5062218;28;20477;-86
2023/04/14 08:09:58;;;;;;;21.38;8.75;;;8.40;99.90;;;;;;5058126;28;20389;-85
2023/04/14 08:12:24;;;;;;;21.48;9.52;;;8.50;99.90;;;;;;5062969;28;20040;-85
2023/04/14 08:14:52;;;;;;;23.33;9.98;;;8.50;99.90;;;;;;5063173;28;20074;-85
2023/04/14 08:17:18;;;;;;;25.67;9.00;;;8.50;99.90;;;;;;5061007;28;20385;-86
2023/04/14 08:19:43;;;;;;;16.67;9.13;;;8.50;99.90;;;;;;5065179;28;20028;-85
2023/04/14 08:22:09;;;;;;;16.75;8.50;;;8.50;99.90;;;;;;5055292;28;20071;-85
2023/04/14 08:24:35;;;;;;;21.40;8.60;;;8.50;99.90;;;;;;5055452;28;20016;-85
2023/04/14 08:27:01;;;;;;;15.10;7.57;;;8.50;99.90;;;;;;5061617;28;20108;-86
2023/04/14 08:29:27;;;;;;;16.30;7.88;;;8.60;99.90;;;;;;5061776;28;20196;-85
2023/04/14 08:31:52;;;;;;;16.75;8.27;;;8.60;99.90;;;;;;5064095;28;20031;-85
2023/04/14 08:34:18;;;;;;;20.33;8.23;;;8.70;99.90;;;;;;5062434;28;20024;-85
2023/04/14 08:36:45;;;;;;;14.80;8.50;;;8.70;99.90;;;;;;5061145;28;20028;-85
2023/04/14 08:39:10;;;;;;;15.90;9.88;;;8.70;99.90;;;;;;5059107;28;20047;-86
2023/04/14 08:41:40;;;;;;;19.42;10.15;;;8.70;99.90;;;;;;5061187;28;20568;-85
2023/04/14 08:44:06;;;;;;;21.90;10.65;;;8.70;99.90;;;;;;5058517;28;20033;-85
2023/04/14 08:46:33;;;;;;;22.85;11.10;;;8.70;99.90;;;;;;5057772;28;20031;-85
2023/04/14 08:49:09;;;;;;;15.02;8.88;;;8.70;99.90;;;;;;5059358;28;20044;-85
2023/04/14 08:51:39;;;;;;;21.58;9.38;;;8.70;99.90;;;;;;5055075;28;20111;-85
2023/04/14 08:54:08;;;;;;;17.20;7.07;;;8.70;99.90;;;;;;5059965;28;20096;-85
2023/04/14 08:56:37;;;;;;;13.60;7.72;;;8.60;99.90;;;;;;5061897;28;20477;-85
2023/04/14 08:59:06;;;;;;;17.27;10.65;;;8.50;99.90;;;;;;5058353;28;20028;-85
2023/04/14 09:01:33;;;;;;;16.17;9.10;;;8.50;99.90;;;;;;5054154;28;20031;-86
2023/04/14 09:04:02;;;;;;;14.82;9.15;;;8.50;99.90;;;;;;5059726;28;20055;-86
2023/04/14 09:06:29;;;;;;;23.63;10.77;;;8.50;99.90;;;;;;5064918;28;20082;-85
2023/04/14 09:08:54;;;;;;;25.25;11.65;;;8.60;99.90;;;;;;5061192;28;20048;-85
2023/04/14 09:11:20;;;;;;;23.38;13.68;;;8.60;99.90;;;;;;5055792;28;20020;-85
2023/04/14 09:13:48;;;;;;;34.25;14.13;;;8.60;99.90;;;;;;5055147;28;20119;-85
2023/04/14 09:16:15;;;;;;;25.55;11.98;;;8.60;99.90;;;;;;5064266;28;20031;-85
2023/04/14 09:18:42;;;;;;;22.85;13.32;;;8.50;99.90;;;;;;5062623;28;20029;-85
2023/04/14 09:21:09;;;;;;;21.83;11.75;;;8.60;99.90;;;;;;5062035;28;20052;-85
2023/04/14 09:23:36;;;;;;;29.02;12.77;;;8.60;99.90;;;;;;5067051;28;20081;-86
2023/04/14 09:26:08;;;;;;;26.20;12.88;;;8.60;99.90;;;;;;5056698;28;20026;-86
2023/04/14 09:28:34;;;;;;;31.02;12.20;;;8.70;99.90;;;;;;5060814;28;20089;-85
2023/04/14 09:31:01;;;;;;;33.00;14.90;;;8.80;99.90;;;;;;5064955;28;20385;-86
2023/04/14 09:33:30;;;;;;;27.45;12.93;;;8.80;99.90;;;;;;5060937;28;20017;-85
2023/04/14 09:35:56;;;;;;;23.50;10.93;;;8.90;99.90;;;;;;5062358;28;20024;-85
2023/04/14 09:38:37;;;;;;;17.38;10.27;;;8.90;99.90;;;;;;5060569;28;20078;-85
2023/04/14 09:41:05;;;;;;;23.45;11.50;;;8.90;99.90;;;;;;5062990;28;20864;-85
2023/04/14 09:43:31;;;;;;;17.00;10.70;;;8.90;99.90;;;;;;5067454;28;20240;-85
2023/04/14 09:46:09;;;;;;;30.58;10.55;;;8.90;99.90;;;;;;5060395;28;20029;-85
2023/04/14 09:48:38;;;;;;;23.45;10.65;;;8.90;99.90;;;;;;5061389;28;20037;-85
2023/04/14 09:51:08;;;;;;;20.80;10.25;;;9.00;99.90;;;;;;5061004;28;20033;-86
2023/04/14 09:53:39;;;;;;;17.40;10.82;;;9.00;99.90;;;;;;5062251;28;20413;-85
2023/04/14 09:56:09;;;;;;;20.15;10.82;;;9.10;99.90;;;;;;5063795;28;20031;-85
2023/04/14 09:58:36;;;;;;;14.40;10.32;;;9.20;99.90;;;;;;5064321;28;20358;-86
2023/04/14 10:01:09;;;;;;;21.70;11.95;;;9.20;99.90;;;;;;5063461;28;20394;-85
2023/04/14 10:03:38;;;;;;;23.20;11.75;;;9.20;99.90;;;;;;5061814;28;20024;-85
2023/04/14 10:06:08;;;;;;;21.23;11.02;;;9.30;99.90;;;;;;5063803;28;20046;-85
2023/04/14 10:08:37;;;;;;;24.20;11.10;;;9.30;99.90;;;;;;5059336;28;20401;-85
2023/04/14 10:11:24;;;;;;;19.52;11.13;;;9.30;99.90;;;;;;5065597;28;20027;-85
2023/04/14 10:13:56;;;;;;;18.08;9.75;;;9.30;99.90;;;;;;5061741;28;20021;-85
2023/04/14 10:16:23;;;;;;;21.38;9.68;;;9.40;99.90;;;;;;5063356;28;20473;-83
2023/04/14 10:18:50;;;;;;;16.60;10.18;;;9.40;99.90;;;;;;5058747;28;20477;-84
2023/04/14 10:21:17;;;;;;;22.08;11.00;;;9.50;99.90;;;;;;5057869;28;20044;-85
2023/04/14 10:23:43;;;;;;;21.65;9.48;;;9.50;99.90;;;;;;5058632;28;20028;-84
2023/04/14 10:26:11;;;;;;;23.90;9.63;;;9.60;99.90;;;;;;5059951;28;20389;-86
2023/04/14 10:28:41;;;;;;;18.95;9.63;;;9.50;99.90;;;;;;5053392;28;20489;-85
2023/04/14 10:31:12;;;;;;;13.82;8.90;;;9.60;99.90;;;;;;5061619;28;20028;-84
2023/04/14 10:33:38;;;;;;;15.63;8.55;;;9.60;99.90;;;;;;5061345;28;20469;-85
2023/04/14 10:36:04;;;;;;;15.82;8.27;;;9.50;99.90;;;;;;5062517;28;20481;-84
2023/04/14 10:38:41;;;;;;;12.77;8.32;;;9.50;99.90;;;;;;5058857;28;20346;-85
2023/04/14 10:41:07;;;;;;;26.52;8.60;;;9.40;99.90;;;;;;5065003;28;20044;-84
2023/04/14 10:43:37;;;;;;;18.70;9.18;;;9.40;99.90;;;;;;5066478;28;20385;-84
2023/04/14 10:46:04;;;;;;;17.33;8.50;;;9.40;99.90;;;;;;5067135;28;20111;-84
2023/04/14 10:48:38;;;;;;;14.65;8.00;;;9.40;99.90;;;;;;5064865;28;20186;-84
2023/04/14 10:51:06;;;;;;;17.73;7.82;;;9.40;99.90;;;;;;5064625;28;20066;-84
2023/04/14 10:53:46;;;;;;;15.40;7.80;;;9.40;99.90;;;;;;5063196;28;20039;-83
2023/04/14 10:56:12;;;;;;;20.92;9.05;;;9.40;99.90;;;;;;5064827;28;20081;-85
2023/04/14 10:58:38;;;;;;;18.50;9.10;;;9.40;99.90;;;;;;5063373;28;20032;-84
2023/04/14 11:01:26;;;;;;;12.57;8.18;;;9.40;99.90;;;;;;5061537;28;20036;-85
2023/04/14 11:03:54;;;;;;;16.52;8.90;;;9.40;99.90;;;;;;5060912;28;20037;-83
2023/04/14 11:07:03;;;;;;;15.57;7.63;;;9.40;99.90;;;;;;5059411;28;20142;-84
2023/04/14 11:09:31;;;;;;;15.05;6.97;;;9.40;99.90;;;;;;5062372;28;20102;-85
2023/04/14 11:12:21;;;;;;;18.35;8.00;;;9.40;99.90;;;;;;5059500;28;20072;-83
2023/04/14 11:14:46;;;;;;;14.02;8.95;;;9.40;99.90;;;;;;5065091;28;20017;-84
2023/04/14 11:17:20;;;;;;;12.43;8.57;;;9.50;99.90;;;;;;5062084;28;20036;-84
2023/04/14 11:19:46;;;;;;;14.65;7.90;;;9.50;99.90;;;;;;5059020;28;20109;-84
2023/04/14 11:22:12;;;;;;;15.32;8.25;;;9.50;99.90;;;;;;5059488;28;20028;-84
2023/04/14 11:24:38;;;;;;;13.18;7.72;;;9.50;99.90;;;;;;5060501;28;20127;-84
2023/04/14 11:27:04;;;;;;;12.73;8.38;;;9.50;99.90;;;;;;5060651;28;20036;-84
2023/04/14 11:29:30;;;;;;;12.88;7.32;;;9.50;99.90;;;;;;5064651;28;20036;-83
2023/04/14 11:32:00;;;;;;;13.27;5.95;;;9.50;99.90;;;;;;5062933;28;20025;-84
2023/04/14 11:34:27;;;;;;;13.73;8.20;;;9.50;99.90;;;;;;5059403;28;20036;-83
2023/04/14 11:36:53;;;;;;;12.10;6.50;;;9.50;99.90;;;;;;5056484;28;20041;-84
2023/04/14 11:39:19;;;;;;;14.25;8.85;;;9.50;99.90;;;;;;5061273;28;20028;-84
2023/04/14 11:41:50;;;;;;;14.38;8.77;;;9.60;99.90;;;;;;5056263;28;20143;-84
2023/04/14 11:44:18;;;;;;;19.38;9.40;;;9.60;99.90;;;;;;5056935;28;20243;-84
2023/04/14 11:46:44;;;;;;;13.63;8.93;;;9.60;99.90;;;;;;5064323;28;20059;-84
2023/04/14 11:49:10;;;;;;;13.18;7.90;;;9.70;99.90;;;;;;5061491;28;20524;-84
2023/04/14 11:51:37;;;;;;;14.23;9.40;;;9.60;99.90;;;;;;5062290;28;20093;-84
2023/04/14 11:54:06;;;;;;;13.95;9.18;;;9.60;99.90;;;;;;5056363;28;20029;-84
2023/04/14 11:56:32;;;;;;;11.65;8.43;;;9.70;99.90;;;;;;5062226;28;20032;-84
2023/04/14 11:58:59;;;;;;;17.52;10.32;;;9.70;99.90;;;;;;5055518;28;20020;-84
2023/04/14 12:01:25;;;;;;;15.38;9.05;;;9.70;99.90;;;;;;5063024;28;20047;-84
2023/04/14 12:03:51;;;;;;;15.98;9.73;;;9.70;99.90;;;;;;5064706;28;20256;-84
2023/04/14 12:06:17;;;;;;;19.88;9.20;;;9.60;99.90;;;;;;5058110;28;20032;-85
2023/04/14 12:08:49;;;;;;;13.73;9.27;;;9.60;99.90;;;;;;5055715;28;20393;-84
2023/04/14 12:11:15;;;;;;;15.10;9.70;;;9.70;99.90;;;;;;5057744;28;20032;-84
2023/04/14 12:13:45;;;;;;;18.98;8.38;;;9.70;99.90;;;;;;5059029;28;20477;-83
2023/04/14 12:16:12;;;;;;;18.83;10.20;;;9.70;99.90;;;;;;5060251;28;20052;-83
2023/04/14 12:18:38;;;;;;;13.02;8.70;;;9.70;99.90;;;;;;5056020;28;20029;-84
2023/04/14 12:21:05;;;;;;;15.18;8.60;;;9.70;99.90;;;;;;5059092;28;20028;-84
2023/04/14 12:23:40;;;;;;;17.80;9.60;;;9.80;99.90;;;;;;5062628;28;20052;-84
2023/04/14 12:26:10;;;;;;;14.40;9.38;;;9.90;99.90;;;;;;5050509;28;20028;-84
2023/04/14 12:28:38;;;;;;;16.90;9.68;;;9.90;99.90;;;;;;5058252;28;20040;-83
2023/04/14 12:31:03;;;;;;;16.17;9.18;;;9.90;99.90;;;;;;5056236;28;20078;-83
2023/04/14 12:33:31;;;;;;;14.85;7.97;;;10.00;99.90;;;;;;5060246;28;20431;-83
2023/04/14 12:36:04;;;;;;;12.80;6.80;;;10.00;99.90;;;;;;5063136;28;20032;-84
2023/04/14 12:38:52;;;;;;;7.90;4.70;;;10.00;99.90;;;;;;5056662;28;20040;-83
2023/04/14 12:41:22;;;;;;;8.73;5.03;;;10.00;99.90;;;;;;5057135;28;20035;-83
2023/04/14 12:43:47;;;;;;;8.23;5.45;;;10.10;99.90;;;;;;5065058;28;20029;-84
2023/04/14 12:46:25;;;;;;;6.25;5.18;;;10.20;99.90;;;;;;5058581;28;20027;-83
2023/04/14 12:48:54;;;;;;;11.50;5.20;;;10.30;99.90;;;;;;5058413;28;20398;-84
2023/04/14 12:51:20;;;;;;;8.15;5.50;;;10.50;99.90;;;;;;5060626;28;20024;-84
2023/04/14 12:53:48;;;;;;;8.90;5.60;;;10.60;99.90;;;;;;5062728;28;20357;-83